sensor_id;sensor_type;location;lat;lon;timestamp;P1;durP1;ratioP1;P2;durP2;ratioP2
45676;SDS011;31390;51.186;6.830;2022-08-11T00:00:59;3.40;;;2.08;;
45676;SDS011;31390;51.186;6.830;2022-08-11T00:03:30;3.05;;;1.85;;
45676;SDS011;31390;51.186;6.830;2022-08-11T00:06:09;2.05;;;1.85;;
45676;SDS011;31390;51.186;6.830;2022-08-11T00:08:36;3.13;;;1.70;;
45676;SDS011;31390;51.186;6.830;2022-08-11T00:11:05;2.03;;;1.88;;
45676;SDS011;31390;51.186;6.830;2022-08-11T00:13:33;4.53;;;2.03;;
45676;SDS011;31390;51.186;6.830;2022-08-11T00:16:00;2.40;;;2.08;;
45676;SDS011;31390;51.186;6.830;2022-08-11T00:18:27;2.50;;;1.85;;
45676;SDS011;31390;51.186;6.830;2022-08-11T00:20:57;2.38;;;2.17;;
45676;SDS011;31390;51.186;6.830;2022-08-11T00:23:24;3.88;;;2.20;;
45676;SDS011;31390;51.186;6.830;2022-08-11T00:25:51;2.17;;;1.95;;
45676;SDS011;31390;51.186;6.830;2022-08-11T00:30:52;2.97;;;2.30;;
45676;SDS011;31390;51.186;6.830;2022-08-11T00:33:21;4.07;;;2.17;;
45676;SDS011;31390;51.186;6.830;2022-08-11T00:36:09;2.78;;;1.90;;
45676;SDS011;31390;51.186;6.830;2022-08-11T00:38:37;6.85;;;2.55;;
45676;SDS011;31390;51.186;6.830;2022-08-11T00:44:06;3.05;;;2.20;;
45676;SDS011;31390;51.186;6.830;2022-08-11T00:51:42;2.83;;;1.95;;
45676;SDS011;31390;51.186;6.830;2022-08-11T00:57:31;4.88;;;2.45;;
45676;SDS011;31390;51.186;6.830;2022-08-11T01:00:16;3.63;;;2.30;;
45676;SDS011;31390;51.186;6.830;2022-08-11T01:08:15;3.03;;;2.40;;
45676;SDS011;31390;51.186;6.830;2022-08-11T01:19:04;4.10;;;2.50;;
45676;SDS011;31390;51.186;6.830;2022-08-11T01:35:24;2.78;;;2.50;;
45676;SDS011;31390;51.186;6.830;2022-08-11T01:43:20;6.30;;;2.67;;
45676;SDS011;31390;51.186;6.830;2022-08-11T01:49:01;3.35;;;3.05;;
45676;SDS011;31390;51.186;6.830;2022-08-11T01:52:03;4.60;;;2.72;;
45676;SDS011;31390;51.186;6.830;2022-08-11T01:57:17;3.53;;;2.45;;
45676;SDS011;31390;51.186;6.830;2022-08-11T01:59:49;4.72;;;2.20;;
45676;SDS011;31390;51.186;6.830;2022-08-11T02:02:28;3.13;;;2.65;;
45676;SDS011;31390;51.186;6.830;2022-08-11T02:13:41;5.10;;;2.90;;
45676;SDS011;31390;51.186;6.830;2022-08-11T02:16:11;3.88;;;2.67;;
45676;SDS011;31390;51.186;6.830;2022-08-11T02:18:40;4.78;;;2.78;;
45676;SDS011;31390;51.186;6.830;2022-08-11T02:21:28;5.40;;;2.80;;
45676;SDS011;31390;51.186;6.830;2022-08-11T02:24:16;4.78;;;2.60;;
45676;SDS011;31390;51.186;6.830;2022-08-11T02:26:49;3.28;;;2.95;;
45676;SDS011;31390;51.186;6.830;2022-08-11T02:29:28;4.57;;;2.75;;
45676;SDS011;31390;51.186;6.830;2022-08-11T02:32:13;2.67;;;2.45;;
45676;SDS011;31390;51.186;6.830;2022-08-11T02:35:07;3.33;;;2.97;;
45676;SDS011;31390;51.186;6.830;2022-08-11T02:37:39;5.95;;;2.70;;
45676;SDS011;31390;51.186;6.830;2022-08-11T02:40:16;3.58;;;2.85;;
45676;SDS011;31390;51.186;6.830;2022-08-11T02:43:00;3.38;;;2.78;;
45676;SDS011;31390;51.186;6.830;2022-08-11T02:51:23;5.55;;;3.30;;
45676;SDS011;31390;51.186;6.830;2022-08-11T02:57:12;4.60;;;3.00;;
45676;SDS011;31390;51.186;6.830;2022-08-11T03:00:12;3.67;;;2.90;;
45676;SDS011;31390;51.186;6.830;2022-08-11T03:21:25;3.45;;;3.15;;
45676;SDS011;31390;51.186;6.830;2022-08-11T03:24:17;3.33;;;3.03;;
45676;SDS011;31390;51.186;6.830;2022-08-11T03:26:53;4.28;;;3.33;;
45676;SDS011;31390;51.186;6.830;2022-08-11T03:32:08;5.25;;;4.05;;
45676;SDS011;31390;51.186;6.830;2022-08-11T03:34:38;4.45;;;3.10;;
45676;SDS011;31390;51.186;6.830;2022-08-11T03:48:15;4.38;;;3.42;;
45676;SDS011;31390;51.186;6.830;2022-08-11T03:50:57;5.38;;;4.00;;
45676;SDS011;31390;51.186;6.830;2022-08-11T03:58:40;5.88;;;4.40;;
45676;SDS011;31390;51.186;6.830;2022-08-11T04:14:34;4.70;;;4.25;;
45676;SDS011;31390;51.186;6.830;2022-08-11T04:30:34;6.60;;;4.20;;
45676;SDS011;31390;51.186;6.830;2022-08-11T04:53:55;4.45;;;4.05;;
45676;SDS011;31390;51.186;6.830;2022-08-11T04:56:43;6.38;;;4.57;;
45676;SDS011;31390;51.186;6.830;2022-08-11T05:13:27;6.60;;;4.72;;
45676;SDS011;31390;51.186;6.830;2022-08-11T05:16:14;6.38;;;4.90;;
45676;SDS011;31390;51.186;6.830;2022-08-11T05:19:02;9.95;;;5.15;;
45676;SDS011;31390;51.186;6.830;2022-08-11T05:21:54;7.57;;;4.70;;
45676;SDS011;31390;51.186;6.830;2022-08-11T05:24:42;6.88;;;4.97;;
45676;SDS011;31390;51.186;6.830;2022-08-11T05:28:02;12.00;;;4.78;;
45676;SDS011;31390;51.186;6.830;2022-08-11T05:30:40;6.90;;;5.18;;
45676;SDS011;31390;51.186;6.830;2022-08-11T05:33:32;9.23;;;5.43;;
45676;SDS011;31390;51.186;6.830;2022-08-11T05:39:02;8.32;;;5.22;;
45676;SDS011;31390;51.186;6.830;2022-08-11T05:42:03;10.07;;;5.45;;
45676;SDS011;31390;51.186;6.830;2022-08-11T05:45:08;7.22;;;5.18;;
45676;SDS011;31390;51.186;6.830;2022-08-11T05:48:15;6.32;;;4.57;;
45676;SDS011;31390;51.186;6.830;2022-08-11T05:51:00;12.35;;;5.28;;
45676;SDS011;31390;51.186;6.830;2022-08-11T05:53:56;10.32;;;5.20;;
45676;SDS011;31390;51.186;6.830;2022-08-11T05:56:55;12.77;;;4.57;;
45676;SDS011;31390;51.186;6.830;2022-08-11T05:59:24;7.53;;;4.80;;
45676;SDS011;31390;51.186;6.830;2022-08-11T06:01:58;8.43;;;3.90;;
45676;SDS011;31390;51.186;6.830;2022-08-11T06:04:25;10.88;;;4.90;;
45676;SDS011;31390;51.186;6.830;2022-08-11T06:06:57;7.97;;;4.32;;
45676;SDS011;31390;51.186;6.830;2022-08-11T06:09:32;7.40;;;4.32;;
45676;SDS011;31390;51.186;6.830;2022-08-11T06:12:14;6.13;;;4.00;;
45676;SDS011;31390;51.186;6.830;2022-08-11T06:14:45;7.60;;;3.90;;
45676;SDS011;31390;51.186;6.830;2022-08-11T06:17:11;5.28;;;3.55;;
45676;SDS011;31390;51.186;6.830;2022-08-11T06:19:42;8.80;;;3.88;;
45676;SDS011;31390;51.186;6.830;2022-08-11T06:22:12;4.70;;;3.40;;
45676;SDS011;31390;51.186;6.830;2022-08-11T06:24:59;4.50;;;3.30;;
45676;SDS011;31390;51.186;6.830;2022-08-11T06:27:27;3.63;;;3.33;;
45676;SDS011;31390;51.186;6.830;2022-08-11T06:29:55;4.75;;;3.40;;
45676;SDS011;31390;51.186;6.830;2022-08-11T06:32:32;5.55;;;3.38;;
45676;SDS011;31390;51.186;6.830;2022-08-11T06:35:06;5.75;;;3.38;;
45676;SDS011;31390;51.186;6.830;2022-08-11T06:40:15;4.40;;;3.20;;
45676;SDS011;31390;51.186;6.830;2022-08-11T06:42:47;10.25;;;3.60;;
45676;SDS011;31390;51.186;6.830;2022-08-11T06:45:19;5.28;;;3.60;;
45676;SDS011;31390;51.186;6.830;2022-08-11T06:47:51;7.50;;;3.83;;
45676;SDS011;31390;51.186;6.830;2022-08-11T06:50:20;6.65;;;3.45;;
45676;SDS011;31390;51.186;6.830;2022-08-11T06:53:08;5.50;;;3.13;;
45676;SDS011;31390;51.186;6.830;2022-08-11T06:55:40;9.10;;;3.95;;
45676;SDS011;31390;51.186;6.830;2022-08-11T06:58:30;7.55;;;3.20;;
45676;SDS011;31390;51.186;6.830;2022-08-11T07:01:31;5.32;;;3.38;;
45676;SDS011;31390;51.186;6.830;2022-08-11T07:04:05;6.80;;;3.72;;
45676;SDS011;31390;51.186;6.830;2022-08-11T07:09:34;5.50;;;3.00;;
45676;SDS011;31390;51.186;6.830;2022-08-11T07:15:19;12.18;;;3.42;;
45676;SDS011;31390;51.186;6.830;2022-08-11T07:18:25;5.50;;;3.15;;
45676;SDS011;31390;51.186;6.830;2022-08-11T07:21:13;5.22;;;3.10;;
45676;SDS011;31390;51.186;6.830;2022-08-11T07:24:24;5.03;;;3.05;;
45676;SDS011;31390;51.186;6.830;2022-08-11T07:27:29;7.38;;;2.83;;
45676;SDS011;31390;51.186;6.830;2022-08-11T07:30:15;5.10;;;2.88;;
45676;SDS011;31390;51.186;6.830;2022-08-11T07:32:51;6.63;;;3.08;;
45676;SDS011;31390;51.186;6.830;2022-08-11T07:35:26;4.35;;;2.90;;
45676;SDS011;31390;51.186;6.830;2022-08-11T07:37:56;6.53;;;2.75;;
45676;SDS011;31390;51.186;6.830;2022-08-11T07:40:27;6.90;;;2.80;;
45676;SDS011;31390;51.186;6.830;2022-08-11T07:42:54;7.05;;;3.30;;
45676;SDS011;31390;51.186;6.830;2022-08-11T07:45:22;5.30;;;3.35;;
45676;SDS011;31390;51.186;6.830;2022-08-11T07:48:09;7.55;;;3.40;;
45676;SDS011;31390;51.186;6.830;2022-08-11T07:50:54;5.88;;;3.03;;
45676;SDS011;31390;51.186;6.830;2022-08-11T07:53:45;7.60;;;2.92;;
45676;SDS011;31390;51.186;6.830;2022-08-11T07:56:31;5.28;;;2.80;;
45676;SDS011;31390;51.186;6.830;2022-08-11T07:59:18;5.63;;;2.78;;
45676;SDS011;31390;51.186;6.830;2022-08-11T08:02:26;6.05;;;2.40;;
45676;SDS011;31390;51.186;6.830;2022-08-11T08:05:13;7.13;;;2.88;;
45676;SDS011;31390;51.186;6.830;2022-08-11T08:08:00;8.48;;;2.85;;
45676;SDS011;31390;51.186;6.830;2022-08-11T08:10:45;4.50;;;2.92;;
45676;SDS011;31390;51.186;6.830;2022-08-11T08:13:31;6.32;;;2.58;;
45676;SDS011;31390;51.186;6.830;2022-08-11T08:16:18;5.30;;;3.40;;
45676;SDS011;31390;51.186;6.830;2022-08-11T08:19:05;4.65;;;2.72;;
45676;SDS011;31390;51.186;6.830;2022-08-11T08:21:31;3.03;;;2.60;;
45676;SDS011;31390;51.186;6.830;2022-08-11T08:23:59;7.68;;;2.45;;
45676;SDS011;31390;51.186;6.830;2022-08-11T08:26:27;8.57;;;3.15;;
45676;SDS011;31390;51.186;6.830;2022-08-11T08:29:17;4.13;;;2.63;;
45676;SDS011;31390;51.186;6.830;2022-08-11T08:32:03;4.43;;;3.08;;
45676;SDS011;31390;51.186;6.830;2022-08-11T08:34:30;5.85;;;2.47;;
45676;SDS011;31390;51.186;6.830;2022-08-11T08:36:59;3.78;;;2.30;;
45676;SDS011;31390;51.186;6.830;2022-08-11T08:39:28;2.70;;;2.20;;
45676;SDS011;31390;51.186;6.830;2022-08-11T08:41:58;5.40;;;3.40;;
45676;SDS011;31390;51.186;6.830;2022-08-11T08:44:27;3.33;;;2.63;;
45676;SDS011;31390;51.186;6.830;2022-08-11T08:47:06;4.95;;;2.85;;
45676;SDS011;31390;51.186;6.830;2022-08-11T08:49:35;7.20;;;2.60;;
45676;SDS011;31390;51.186;6.830;2022-08-11T08:52:06;6.10;;;2.72;;
45676;SDS011;31390;51.186;6.830;2022-08-11T08:54:55;6.03;;;2.25;;
45676;SDS011;31390;51.186;6.830;2022-08-11T08:57:23;3.25;;;2.53;;
45676;SDS011;31390;51.186;6.830;2022-08-11T08:59:53;5.68;;;2.33;;
45676;SDS011;31390;51.186;6.830;2022-08-11T09:02:23;3.08;;;2.40;;
45676;SDS011;31390;51.186;6.830;2022-08-11T09:05:01;3.20;;;2.47;;
45676;SDS011;31390;51.186;6.830;2022-08-11T09:07:28;4.82;;;2.40;;
45676;SDS011;31390;51.186;6.830;2022-08-11T09:10:05;3.70;;;2.33;;
45676;SDS011;31390;51.186;6.830;2022-08-11T09:12:33;3.00;;;2.40;;
45676;SDS011;31390;51.186;6.830;2022-08-11T09:15:04;7.30;;;2.42;;
45676;SDS011;31390;51.186;6.830;2022-08-11T09:17:47;6.30;;;2.95;;
45676;SDS011;31390;51.186;6.830;2022-08-11T09:20:25;3.42;;;2.50;;
45676;SDS011;31390;51.186;6.830;2022-08-11T09:22:56;5.35;;;2.70;;
45676;SDS011;31390;51.186;6.830;2022-08-11T09:26:02;5.35;;;2.65;;
45676;SDS011;31390;51.186;6.830;2022-08-11T09:28:56;3.85;;;2.25;;
45676;SDS011;31390;51.186;6.830;2022-08-11T09:31:24;3.72;;;2.33;;
45676;SDS011;31390;51.186;6.830;2022-08-11T09:33:53;4.03;;;2.40;;
45676;SDS011;31390;51.186;6.830;2022-08-11T09:36:21;7.97;;;3.33;;
45676;SDS011;31390;51.186;6.830;2022-08-11T09:39:08;4.90;;;2.20;;
45676;SDS011;31390;51.186;6.830;2022-08-11T09:42:01;3.38;;;2.33;;
45676;SDS011;31390;51.186;6.830;2022-08-11T09:44:31;3.17;;;2.38;;
45676;SDS011;31390;51.186;6.830;2022-08-11T09:49:51;5.82;;;2.78;;
45676;SDS011;31390;51.186;6.830;2022-08-11T09:52:18;4.00;;;2.22;;
45676;SDS011;31390;51.186;6.830;2022-08-11T09:54:46;3.13;;;2.40;;
45676;SDS011;31390;51.186;6.830;2022-08-11T09:57:14;2.45;;;2.00;;
45676;SDS011;31390;51.186;6.830;2022-08-11T10:00:08;2.95;;;2.00;;
45676;SDS011;31390;51.186;6.830;2022-08-11T10:02:42;3.88;;;2.53;;
45676;SDS011;31390;51.186;6.830;2022-08-11T10:05:09;4.32;;;2.25;;
45676;SDS011;31390;51.186;6.830;2022-08-11T10:07:56;3.08;;;1.90;;
45676;SDS011;31390;51.186;6.830;2022-08-11T10:10:23;4.40;;;1.98;;
45676;SDS011;31390;51.186;6.830;2022-08-11T10:13:00;8.57;;;2.70;;
45676;SDS011;31390;51.186;6.830;2022-08-11T10:15:30;6.18;;;2.78;;
45676;SDS011;31390;51.186;6.830;2022-08-11T10:18:03;3.67;;;2.25;;
45676;SDS011;31390;51.186;6.830;2022-08-11T10:20:50;4.22;;;2.30;;
45676;SDS011;31390;51.186;6.830;2022-08-11T10:23:17;3.65;;;2.85;;
45676;SDS011;31390;51.186;6.830;2022-08-11T10:26:23;3.28;;;2.15;;
45676;SDS011;31390;51.186;6.830;2022-08-11T10:29:10;3.10;;;2.20;;
45676;SDS011;31390;51.186;6.830;2022-08-11T10:32:03;3.17;;;2.25;;
45676;SDS011;31390;51.186;6.830;2022-08-11T10:35:20;5.53;;;2.53;;
45676;SDS011;31390;51.186;6.830;2022-08-11T10:37:48;2.67;;;2.20;;
45676;SDS011;31390;51.186;6.830;2022-08-11T10:40:38;2.60;;;2.40;;
45676;SDS011;31390;51.186;6.830;2022-08-11T10:43:05;3.80;;;2.25;;
45676;SDS011;31390;51.186;6.830;2022-08-11T10:45:38;5.82;;;2.25;;
45676;SDS011;31390;51.186;6.830;2022-08-11T10:48:25;2.85;;;2.30;;
45676;SDS011;31390;51.186;6.830;2022-08-11T10:50:53;7.90;;;5.10;;
45676;SDS011;31390;51.186;6.830;2022-08-11T10:53:41;4.45;;;2.30;;
45676;SDS011;31390;51.186;6.830;2022-08-11T10:56:28;2.83;;;2.42;;
45676;SDS011;31390;51.186;6.830;2022-08-11T10:59:13;4.40;;;2.40;;
45676;SDS011;31390;51.186;6.830;2022-08-11T11:01:41;2.65;;;2.45;;
45676;SDS011;31390;51.186;6.830;2022-08-11T11:04:14;2.78;;;2.58;;
45676;SDS011;31390;51.186;6.830;2022-08-11T11:09:39;7.03;;;2.38;;
45676;SDS011;31390;51.186;6.830;2022-08-11T11:15:11;3.58;;;2.03;;
45676;SDS011;31390;51.186;6.830;2022-08-11T11:20:42;2.58;;;2.38;;
45676;SDS011;31390;51.186;6.830;2022-08-11T11:23:22;2.40;;;2.20;;
45676;SDS011;31390;51.186;6.830;2022-08-11T11:34:21;3.35;;;2.45;;
45676;SDS011;31390;51.186;6.830;2022-08-11T11:36:50;6.20;;;2.60;;
45676;SDS011;31390;51.186;6.830;2022-08-11T11:39:20;3.72;;;2.42;;
45676;SDS011;31390;51.186;6.830;2022-08-11T11:41:48;4.45;;;2.42;;
45676;SDS011;31390;51.186;6.830;2022-08-11T11:44:18;2.92;;;2.33;;
45676;SDS011;31390;51.186;6.830;2022-08-11T11:46:48;3.42;;;2.40;;
45676;SDS011;31390;51.186;6.830;2022-08-11T11:49:19;4.60;;;2.58;;
45676;SDS011;31390;51.186;6.830;2022-08-11T11:51:52;5.47;;;2.83;;
45676;SDS011;31390;51.186;6.830;2022-08-11T11:54:20;4.85;;;2.20;;
45676;SDS011;31390;51.186;6.830;2022-08-11T11:56:49;4.20;;;2.63;;
45676;SDS011;31390;51.186;6.830;2022-08-11T11:59:19;6.10;;;2.53;;
45676;SDS011;31390;51.186;6.830;2022-08-11T12:02:07;3.08;;;2.28;;
45676;SDS011;31390;51.186;6.830;2022-08-11T12:04:40;5.88;;;2.30;;
45676;SDS011;31390;51.186;6.830;2022-08-11T12:07:09;4.30;;;2.13;;
45676;SDS011;31390;51.186;6.830;2022-08-11T12:09:55;2.88;;;2.35;;
45676;SDS011;31390;51.186;6.830;2022-08-11T12:12:22;6.43;;;2.50;;
45676;SDS011;31390;51.186;6.830;2022-08-11T12:15:08;2.38;;;1.95;;
45676;SDS011;31390;51.186;6.830;2022-08-11T12:17:37;4.32;;;2.15;;
45676;SDS011;31390;51.186;6.830;2022-08-11T12:20:05;5.45;;;2.13;;
45676;SDS011;31390;51.186;6.830;2022-08-11T12:22:53;4.40;;;2.10;;
45676;SDS011;31390;51.186;6.830;2022-08-11T12:25:40;4.50;;;2.30;;
45676;SDS011;31390;51.186;6.830;2022-08-11T12:28:47;2.75;;;2.22;;
45676;SDS011;31390;51.186;6.830;2022-08-11T12:31:15;4.10;;;2.60;;
45676;SDS011;31390;51.186;6.830;2022-08-11T12:33:42;5.03;;;2.10;;
45676;SDS011;31390;51.186;6.830;2022-08-11T12:36:09;2.33;;;2.10;;
45676;SDS011;31390;51.186;6.830;2022-08-11T12:38:42;3.92;;;2.20;;
45676;SDS011;31390;51.186;6.830;2022-08-11T12:41:19;5.00;;;2.25;;
45676;SDS011;31390;51.186;6.830;2022-08-11T12:44:07;2.97;;;2.20;;
45676;SDS011;31390;51.186;6.830;2022-08-11T12:46:53;3.25;;;2.40;;
45676;SDS011;31390;51.186;6.830;2022-08-11T12:49:20;3.00;;;2.30;;
45676;SDS011;31390;51.186;6.830;2022-08-11T12:52:13;2.78;;;2.30;;
45676;SDS011;31390;51.186;6.830;2022-08-11T12:57:22;2.40;;;2.20;;
45676;SDS011;31390;51.186;6.830;2022-08-11T13:00:10;5.45;;;2.25;;
45676;SDS011;31390;51.186;6.830;2022-08-11T13:02:55;4.78;;;2.67;;
45676;SDS011;31390;51.186;6.830;2022-08-11T13:05:41;2.30;;;2.10;;
45676;SDS011;31390;51.186;6.830;2022-08-11T13:08:11;5.95;;;2.33;;
45676;SDS011;31390;51.186;6.830;2022-08-11T13:10:39;3.25;;;2.38;;
45676;SDS011;31390;51.186;6.830;2022-08-11T13:13:27;8.43;;;2.33;;
45676;SDS011;31390;51.186;6.830;2022-08-11T13:16:15;4.35;;;2.38;;
45676;SDS011;31390;51.186;6.830;2022-08-11T13:18:42;3.75;;;2.83;;
45676;SDS011;31390;51.186;6.830;2022-08-11T13:21:10;2.50;;;2.30;;
45676;SDS011;31390;51.186;6.830;2022-08-11T13:23:46;4.70;;;2.67;;
45676;SDS011;31390;51.186;6.830;2022-08-11T13:26:28;3.40;;;2.45;;
45676;SDS011;31390;51.186;6.830;2022-08-11T13:29:14;3.70;;;2.30;;
45676;SDS011;31390;51.186;6.830;2022-08-11T13:31:46;5.03;;;2.20;;
45676;SDS011;31390;51.186;6.830;2022-08-11T13:34:14;3.60;;;2.38;;
45676;SDS011;31390;51.186;6.830;2022-08-11T13:36:41;4.60;;;2.20;;
45676;SDS011;31390;51.186;6.830;2022-08-11T13:39:09;2.38;;;2.10;;
45676;SDS011;31390;51.186;6.830;2022-08-11T13:41:36;4.95;;;2.25;;
45676;SDS011;31390;51.186;6.830;2022-08-11T13:44:08;4.72;;;2.30;;
45676;SDS011;31390;51.186;6.830;2022-08-11T13:46:35;2.70;;;2.50;;
45676;SDS011;31390;51.186;6.830;2022-08-11T13:49:02;2.40;;;2.15;;
45676;SDS011;31390;51.186;6.830;2022-08-11T13:51:31;3.28;;;2.22;;
45676;SDS011;31390;51.186;6.830;2022-08-11T13:54:03;2.80;;;2.50;;
45676;SDS011;31390;51.186;6.830;2022-08-11T13:56:34;4.20;;;2.45;;
45676;SDS011;31390;51.186;6.830;2022-08-11T13:59:01;5.00;;;2.50;;
45676;SDS011;31390;51.186;6.830;2022-08-11T14:01:31;3.35;;;2.58;;
45676;SDS011;31390;51.186;6.830;2022-08-11T14:04:22;5.65;;;2.53;;
45676;SDS011;31390;51.186;6.830;2022-08-11T14:06:59;5.50;;;2.47;;
45676;SDS011;31390;51.186;6.830;2022-08-11T14:09:27;3.13;;;2.58;;
45676;SDS011;31390;51.186;6.830;2022-08-11T14:11:56;2.70;;;2.35;;
45676;SDS011;31390;51.186;6.830;2022-08-11T14:14:51;5.28;;;2.40;;
45676;SDS011;31390;51.186;6.830;2022-08-11T14:17:21;7.18;;;2.90;;
45676;SDS011;31390;51.186;6.830;2022-08-11T14:20:08;4.30;;;2.40;;
45676;SDS011;31390;51.186;6.830;2022-08-11T14:22:56;3.60;;;2.63;;
45676;SDS011;31390;51.186;6.830;2022-08-11T14:25:23;4.72;;;2.60;;
45676;SDS011;31390;51.186;6.830;2022-08-11T14:28:11;3.05;;;2.53;;
45676;SDS011;31390;51.186;6.830;2022-08-11T14:31:00;2.72;;;2.53;;
45676;SDS011;31390;51.186;6.830;2022-08-11T14:33:30;2.63;;;2.42;;
45676;SDS011;31390;51.186;6.830;2022-08-11T14:36:20;4.43;;;2.60;;
45676;SDS011;31390;51.186;6.830;2022-08-11T14:38:48;3.45;;;2.67;;
45676;SDS011;31390;51.186;6.830;2022-08-11T14:41:15;6.43;;;2.95;;
45676;SDS011;31390;51.186;6.830;2022-08-11T14:44:01;5.75;;;2.92;;
45676;SDS011;31390;51.186;6.830;2022-08-11T14:46:47;4.13;;;2.90;;
45676;SDS011;31390;51.186;6.830;2022-08-11T14:49:50;3.67;;;2.47;;
45676;SDS011;31390;51.186;6.830;2022-08-11T14:52:50;3.25;;;2.65;;
45676;SDS011;31390;51.186;6.830;2022-08-11T14:55:17;7.28;;;2.83;;
45676;SDS011;31390;51.186;6.830;2022-08-11T14:58:03;3.85;;;2.97;;
45676;SDS011;31390;51.186;6.830;2022-08-11T15:00:31;5.15;;;2.50;;
45676;SDS011;31390;51.186;6.830;2022-08-11T15:02:59;7.35;;;3.15;;
45676;SDS011;31390;51.186;6.830;2022-08-11T15:08:29;3.17;;;2.88;;
45676;SDS011;31390;51.186;6.830;2022-08-11T15:11:17;4.53;;;3.20;;
45676;SDS011;31390;51.186;6.830;2022-08-11T15:14:04;5.97;;;3.13;;
45676;SDS011;31390;51.186;6.830;2022-08-11T15:16:31;3.03;;;2.72;;
45676;SDS011;31390;51.186;6.830;2022-08-11T15:19:17;4.90;;;2.60;;
45676;SDS011;31390;51.186;6.830;2022-08-11T15:21:47;4.25;;;3.20;;
45676;SDS011;31390;51.186;6.830;2022-08-11T15:24:32;4.85;;;2.63;;
45676;SDS011;31390;51.186;6.830;2022-08-11T15:27:12;4.03;;;3.10;;
45676;SDS011;31390;51.186;6.830;2022-08-11T15:30:00;3.10;;;2.80;;
45676;SDS011;31390;51.186;6.830;2022-08-11T15:32:59;7.05;;;3.20;;
45676;SDS011;31390;51.186;6.830;2022-08-11T15:35:45;5.60;;;2.95;;
45676;SDS011;31390;51.186;6.830;2022-08-11T15:38:30;5.10;;;2.83;;
45676;SDS011;31390;51.186;6.830;2022-08-11T15:41:01;4.22;;;2.72;;
45676;SDS011;31390;51.186;6.830;2022-08-11T15:43:48;4.35;;;2.42;;
45676;SDS011;31390;51.186;6.830;2022-08-11T15:46:46;7.32;;;3.00;;
45676;SDS011;31390;51.186;6.830;2022-08-11T15:49:21;5.80;;;2.95;;
45676;SDS011;31390;51.186;6.830;2022-08-11T15:52:02;12.32;;;3.28;;
45676;SDS011;31390;51.186;6.830;2022-08-11T15:54:31;3.28;;;3.00;;
45676;SDS011;31390;51.186;6.830;2022-08-11T15:56:59;6.10;;;2.75;;
45676;SDS011;31390;51.186;6.830;2022-08-11T15:59:30;6.50;;;2.67;;
45676;SDS011;31390;51.186;6.830;2022-08-11T16:02:19;4.72;;;2.80;;
45676;SDS011;31390;51.186;6.830;2022-08-11T16:05:05;2.78;;;2.10;;
45676;SDS011;31390;51.186;6.830;2022-08-11T16:07:34;5.45;;;2.67;;
45676;SDS011;31390;51.186;6.830;2022-08-11T16:10:07;6.30;;;2.80;;
45676;SDS011;31390;51.186;6.830;2022-08-11T16:12:59;3.53;;;2.40;;
45676;SDS011;31390;51.186;6.830;2022-08-11T16:15:37;5.15;;;2.60;;
45676;SDS011;31390;51.186;6.830;2022-08-11T16:18:24;6.75;;;2.78;;
45676;SDS011;31390;51.186;6.830;2022-08-11T16:21:06;5.53;;;2.65;;
45676;SDS011;31390;51.186;6.830;2022-08-11T16:23:34;6.93;;;2.53;;
45676;SDS011;31390;51.186;6.830;2022-08-11T16:26:04;4.07;;;2.40;;
45676;SDS011;31390;51.186;6.830;2022-08-11T16:28:54;2.97;;;2.30;;
45676;SDS011;31390;51.186;6.830;2022-08-11T16:31:21;6.85;;;2.80;;
45676;SDS011;31390;51.186;6.830;2022-08-11T16:33:49;6.40;;;2.83;;
45676;SDS011;31390;51.186;6.830;2022-08-11T16:36:18;4.93;;;2.65;;
45676;SDS011;31390;51.186;6.830;2022-08-11T16:39:04;2.63;;;2.40;;
45676;SDS011;31390;51.186;6.830;2022-08-11T16:41:35;4.10;;;2.60;;
45676;SDS011;31390;51.186;6.830;2022-08-11T16:44:21;8.60;;;2.53;;
45676;SDS011;31390;51.186;6.830;2022-08-11T16:47:14;5.55;;;2.50;;
45676;SDS011;31390;51.186;6.830;2022-08-11T16:49:46;3.45;;;2.50;;
45676;SDS011;31390;51.186;6.830;2022-08-11T16:52:18;6.10;;;2.95;;
45676;SDS011;31390;51.186;6.830;2022-08-11T16:54:45;3.90;;;2.55;;
45676;SDS011;31390;51.186;6.830;2022-08-11T16:57:17;6.13;;;2.38;;
45676;SDS011;31390;51.186;6.830;2022-08-11T17:00:05;5.55;;;2.78;;
45676;SDS011;31390;51.186;6.830;2022-08-11T17:02:36;4.85;;;2.30;;
45676;SDS011;31390;51.186;6.830;2022-08-11T17:05:24;2.92;;;2.25;;
45676;SDS011;31390;51.186;6.830;2022-08-11T17:08:20;4.03;;;2.75;;
45676;SDS011;31390;51.186;6.830;2022-08-11T17:11:19;3.90;;;2.85;;
45676;SDS011;31390;51.186;6.830;2022-08-11T17:14:10;5.18;;;2.80;;
45676;SDS011;31390;51.186;6.830;2022-08-11T17:16:40;4.10;;;2.50;;
45676;SDS011;31390;51.186;6.830;2022-08-11T17:19:27;4.95;;;2.42;;
45676;SDS011;31390;51.186;6.830;2022-08-11T17:22:17;3.78;;;2.22;;
45676;SDS011;31390;51.186;6.830;2022-08-11T17:25:04;4.53;;;2.50;;
45676;SDS011;31390;51.186;6.830;2022-08-11T17:27:31;3.92;;;2.55;;
45676;SDS011;31390;51.186;6.830;2022-08-11T17:30:01;4.35;;;2.42;;
45676;SDS011;31390;51.186;6.830;2022-08-11T17:35:24;4.18;;;2.83;;
45676;SDS011;31390;51.186;6.830;2022-08-11T17:37:59;7.18;;;3.15;;
45676;SDS011;31390;51.186;6.830;2022-08-11T17:40:26;7.18;;;2.80;;
45676;SDS011;31390;51.186;6.830;2022-08-11T17:42:55;6.07;;;2.70;;
45676;SDS011;31390;51.186;6.830;2022-08-11T17:45:40;5.45;;;2.90;;
45676;SDS011;31390;51.186;6.830;2022-08-11T17:48:26;7.57;;;2.75;;
45676;SDS011;31390;51.186;6.830;2022-08-11T17:51:04;5.75;;;2.95;;
45676;SDS011;31390;51.186;6.830;2022-08-11T17:53:33;4.57;;;2.70;;
45676;SDS011;31390;51.186;6.830;2022-08-11T17:56:40;4.15;;;2.60;;
45676;SDS011;31390;51.186;6.830;2022-08-11T17:59:25;6.10;;;2.85;;
45676;SDS011;31390;51.186;6.830;2022-08-11T18:02:14;4.72;;;3.63;;
45676;SDS011;31390;51.186;6.830;2022-08-11T18:05:00;6.40;;;3.45;;
45676;SDS011;31390;51.186;6.830;2022-08-11T18:07:39;5.22;;;2.50;;
45676;SDS011;31390;51.186;6.830;2022-08-11T18:10:24;9.25;;;3.03;;
45676;SDS011;31390;51.186;6.830;2022-08-11T18:13:09;4.30;;;3.05;;
45676;SDS011;31390;51.186;6.830;2022-08-11T18:15:55;8.55;;;2.70;;
45676;SDS011;31390;51.186;6.830;2022-08-11T18:18:40;6.55;;;2.35;;
45676;SDS011;31390;51.186;6.830;2022-08-11T18:21:25;6.00;;;3.03;;
45676;SDS011;31390;51.186;6.830;2022-08-11T18:24:34;5.30;;;3.10;;
45676;SDS011;31390;51.186;6.830;2022-08-11T18:27:21;4.05;;;2.78;;
45676;SDS011;31390;51.186;6.830;2022-08-11T18:30:07;7.40;;;3.20;;
45676;SDS011;31390;51.186;6.830;2022-08-11T18:32:52;5.35;;;2.85;;
45676;SDS011;31390;51.186;6.830;2022-08-11T18:35:58;3.70;;;2.55;;
45676;SDS011;31390;51.186;6.830;2022-08-11T18:38:45;3.47;;;2.60;;
45676;SDS011;31390;51.186;6.830;2022-08-11T18:41:34;4.53;;;2.75;;
45676;SDS011;31390;51.186;6.830;2022-08-11T18:44:20;8.02;;;3.00;;
45676;SDS011;31390;51.186;6.830;2022-08-11T18:47:08;3.00;;;2.53;;
45676;SDS011;31390;51.186;6.830;2022-08-11T18:49:54;4.55;;;2.78;;
45676;SDS011;31390;51.186;6.830;2022-08-11T18:53:01;5.90;;;2.63;;
45676;SDS011;31390;51.186;6.830;2022-08-11T18:55:49;6.63;;;2.78;;
45676;SDS011;31390;51.186;6.830;2022-08-11T18:58:40;4.18;;;2.78;;
45676;SDS011;31390;51.186;6.830;2022-08-11T19:01:34;4.95;;;2.90;;
45676;SDS011;31390;51.186;6.830;2022-08-11T19:04:23;5.75;;;2.88;;
45676;SDS011;31390;51.186;6.830;2022-08-11T19:07:09;5.60;;;3.00;;
45676;SDS011;31390;51.186;6.830;2022-08-11T19:09:56;5.60;;;2.42;;
45676;SDS011;31390;51.186;6.830;2022-08-11T19:12:43;6.35;;;3.10;;
45676;SDS011;31390;51.186;6.830;2022-08-11T19:15:28;3.47;;;2.85;;
45676;SDS011;31390;51.186;6.830;2022-08-11T19:18:15;5.00;;;2.58;;
45676;SDS011;31390;51.186;6.830;2022-08-11T19:21:02;3.38;;;2.35;;
45676;SDS011;31390;51.186;6.830;2022-08-11T19:23:49;4.25;;;2.33;;
45676;SDS011;31390;51.186;6.830;2022-08-11T19:26:36;3.33;;;2.60;;
45676;SDS011;31390;51.186;6.830;2022-08-11T19:29:23;3.78;;;2.60;;